createdAt,value
2023-03-10T00:02:11.165Z,11.08
2023-03-10T00:04:43.940Z,11.04
2023-03-10T00:07:16.814Z,11.01
2023-03-10T00:09:49.516Z,10.98
2023-03-10T00:12:22.900Z,10.95
2023-03-10T00:14:56.417Z,10.94
2023-03-10T00:17:31.020Z,10.92
2023-03-10T00:20:08.138Z,10.91
2023-03-10T00:22:41.933Z,10.90
2023-03-10T00:25:16.366Z,10.89
2023-03-10T00:27:52.605Z,10.92
2023-03-10T00:30:25.308Z,10.94
2023-03-10T00:32:59.444Z,10.98
2023-03-10T00:35:32.155Z,11.03
2023-03-10T00:38:04.929Z,11.06
2023-03-10T00:40:37.612Z,11.08
2023-03-10T00:43:10.362Z,11.11
2023-03-10T00:45:43.020Z,11.13
2023-03-10T00:48:17.229Z,11.13
2023-03-10T00:50:49.945Z,11.15
2023-03-10T00:53:22.837Z,11.15
2023-03-10T00:55:59.165Z,11.17
2023-03-10T00:58:33.129Z,11.19
2023-03-10T01:01:06.684Z,11.20
2023-03-10T01:03:40.812Z,11.23
2023-03-10T01:06:14.073Z,11.28
2023-03-10T01:08:46.789Z,11.31
2023-03-10T01:11:20.777Z,11.37
2023-03-10T01:13:54.401Z,11.40
2023-03-10T01:16:27.551Z,11.47
2023-03-10T01:19:02.484Z,11.54
2023-03-10T01:21:36.196Z,11.60
2023-03-10T01:24:09.248Z,11.66
2023-03-10T01:26:42.042Z,11.74
2023-03-10T01:29:15.016Z,11.83
2023-03-10T01:31:48.476Z,11.90
2023-03-10T01:34:22.564Z,11.98
2023-03-10T01:36:55.263Z,12.06
2023-03-10T01:39:28.213Z,12.15
2023-03-10T01:42:01.086Z,12.21
2023-03-10T01:44:34.023Z,12.33
2023-03-10T01:47:06.963Z,12.40
2023-03-10T01:49:42.935Z,12.50
2023-03-10T01:52:17.675Z,12.59
2023-03-10T01:54:52.620Z,12.66
2023-03-10T01:57:26.502Z,12.74
2023-03-10T02:00:00.140Z,12.80
2023-03-10T02:02:34.682Z,12.89
2023-03-10T02:05:09.391Z,12.94
2023-03-10T02:07:42.240Z,13.00
2023-03-10T02:10:15.520Z,13.06
2023-03-10T02:12:48.310Z,13.11
2023-03-10T02:15:21.060Z,13.14
2023-03-10T02:17:54.461Z,13.21
2023-03-10T02:20:34.351Z,13.25
2023-03-10T02:23:07.335Z,13.28
2023-03-10T02:25:43.910Z,13.32
2023-03-10T02:28:18.715Z,13.36
2023-03-10T02:30:53.967Z,13.38
2023-03-10T02:33:28.196Z,13.39
2023-03-10T02:36:04.208Z,13.39
2023-03-10T02:38:36.965Z,13.39
2023-03-10T02:41:15.155Z,13.35
2023-03-10T02:43:49.961Z,13.31
2023-03-10T02:46:23.825Z,13.27
2023-03-10T02:48:59.881Z,13.20
2023-03-10T02:51:34.517Z,13.14
2023-03-10T02:54:08.198Z,13.07
2023-03-10T02:56:42.692Z,13.02
2023-03-10T02:59:16.750Z,12.99
2023-03-10T03:01:49.590Z,12.94
2023-03-10T03:04:22.290Z,12.88
2023-03-10T03:06:54.965Z,12.84
2023-03-10T03:09:27.639Z,12.80
2023-03-10T03:12:01.415Z,12.76
2023-03-10T03:14:35.652Z,12.73
2023-03-10T03:17:08.359Z,12.67
2023-03-10T03:19:41.113Z,12.65
2023-03-10T03:22:13.790Z,12.62
2023-03-10T03:24:46.557Z,12.60
2023-03-10T03:27:19.306Z,12.57
2023-03-10T03:29:53.385Z,12.54
2023-03-10T03:32:26.384Z,12.52
2023-03-10T03:34:59.934Z,12.52
2023-03-10T03:37:32.641Z,12.48
2023-03-10T03:40:12.867Z,12.47
2023-03-10T03:42:46.793Z,12.48
2023-03-10T03:45:22.646Z,12.46
2023-03-10T03:47:55.367Z,12.44
2023-03-10T03:50:28.705Z,12.43
2023-03-10T03:53:01.422Z,12.40
2023-03-10T03:55:34.113Z,12.38
2023-03-10T03:58:06.843Z,12.35
2023-03-10T04:00:40.892Z,12.33
2023-03-10T04:03:13.641Z,12.28
2023-03-10T04:05:46.581Z,12.24
2023-03-10T04:08:19.297Z,12.21
2023-03-10T04:10:52.293Z,12.17
2023-03-10T04:13:25.204Z,12.13
2023-03-10T04:16:00.093Z,12.07
2023-03-10T04:18:32.818Z,12.04
2023-03-10T04:21:05.660Z,12.01
2023-03-10T04:23:40.279Z,11.97
2023-03-10T04:26:13.049Z,11.95
2023-03-10T04:28:45.730Z,11.95
2023-03-10T04:31:20.660Z,11.91
2023-03-10T04:33:53.845Z,11.90
2023-03-10T04:36:26.570Z,11.89
2023-03-10T04:38:59.410Z,11.88
2023-03-10T04:41:32.116Z,11.87
2023-03-10T04:44:05.300Z,11.84
2023-03-10T04:46:39.446Z,11.83
2023-03-10T04:49:12.191Z,11.80
2023-03-10T04:51:44.819Z,11.76
2023-03-10T04:54:17.585Z,11.75
2023-03-10T04:56:50.303Z,11.75
2023-03-10T04:59:23.146Z,11.77
2023-03-10T05:01:57.299Z,11.76
2023-03-10T05:04:30.137Z,11.76
2023-03-10T05:07:02.985Z,11.76
2023-03-10T05:09:36.328Z,11.75
2023-03-10T05:12:09.668Z,11.75
2023-03-10T05:14:42.475Z,11.72
2023-03-10T05:17:16.582Z,11.71
2023-03-10T05:19:49.223Z,11.68
2023-03-10T05:22:22.203Z,11.68
2023-03-10T05:24:54.983Z,11.67
2023-03-10T05:27:28.108Z,11.66
2023-03-10T05:30:01.022Z,11.65
2023-03-10T05:32:36.520Z,11.65
2023-03-10T05:35:09.649Z,11.64
2023-03-10T05:37:43.639Z,11.63
2023-03-10T05:40:19.872Z,11.63
2023-03-10T05:42:53.529Z,11.59
2023-03-10T05:45:26.287Z,11.60
2023-03-10T05:48:00.346Z,11.59
2023-03-10T05:50:33.046Z,11.56
2023-03-10T05:53:05.947Z,11.56
2023-03-10T05:55:38.667Z,11.54
2023-03-10T05:58:11.682Z,11.53
2023-03-10T06:00:44.454Z,11.53
2023-03-10T06:03:18.757Z,11.53
2023-03-10T06:05:51.510Z,11.54
2023-03-10T06:08:24.504Z,11.56
2023-03-10T06:10:57.865Z,11.58
2023-03-10T06:13:31.258Z,11.62
2023-03-10T06:16:05.514Z,11.67
2023-03-10T06:18:40.251Z,11.74
2023-03-10T06:21:14.259Z,11.81
2023-03-10T06:23:46.907Z,11.90
2023-03-10T06:26:19.980Z,11.99
2023-03-10T06:28:52.743Z,12.06
2023-03-10T06:31:25.619Z,12.18
2023-03-10T06:34:01.488Z,12.26
2023-03-10T06:36:37.408Z,12.36
2023-03-10T06:39:10.319Z,12.48
2023-03-10T06:41:43.035Z,12.58
2023-03-10T06:44:18.871Z,12.67
2023-03-10T06:46:51.732Z,12.76
2023-03-10T06:49:29.255Z,12.84
2023-03-10T06:52:02.121Z,12.92
2023-03-10T06:54:34.853Z,12.97
2023-03-10T06:57:07.584Z,12.99
2023-03-10T06:59:40.216Z,13.00
2023-03-10T07:02:13.698Z,12.98
2023-03-10T07:04:48.141Z,12.95
2023-03-10T07:07:21.070Z,12.88
2023-03-10T07:09:53.757Z,12.81
2023-03-10T07:12:26.580Z,12.72
2023-03-10T07:14:59.337Z,12.63
2023-03-10T07:17:32.072Z,12.54
2023-03-10T07:20:07.847Z,12.42
2023-03-10T07:22:41.036Z,12.34
2023-03-10T07:25:13.704Z,12.23
2023-03-10T07:27:46.449Z,12.12
2023-03-10T07:30:19.297Z,12.04
2023-03-10T07:32:53.224Z,11.96
2023-03-10T07:35:27.387Z,11.88
2023-03-10T07:38:00.182Z,11.80
2023-03-10T07:40:33.355Z,11.75
2023-03-10T07:43:06.330Z,11.68
2023-03-10T07:45:39.486Z,11.67
2023-03-10T07:48:12.170Z,11.63
2023-03-10T07:50:46.169Z,11.62
2023-03-10T07:53:18.928Z,11.60
2023-03-10T07:55:51.716Z,11.59
2023-03-10T07:58:24.503Z,11.55
2023-03-10T08:00:57.875Z,11.53
2023-03-10T08:03:30.901Z,11.49
2023-03-10T08:06:05.858Z,11.46
2023-03-10T08:08:39.362Z,11.43
2023-03-10T08:11:12.363Z,11.40
2023-03-10T08:13:47.749Z,11.37
2023-03-10T08:16:21.855Z,11.32
2023-03-10T08:18:54.956Z,11.31
2023-03-10T08:21:29.107Z,11.28
2023-03-10T08:24:01.946Z,11.23
2023-03-10T08:26:34.688Z,11.21
2023-03-10T08:29:07.515Z,11.18
2023-03-10T08:31:40.668Z,11.15
2023-03-10T08:34:14.345Z,11.12
2023-03-10T08:36:48.493Z,11.09
2023-03-10T08:39:21.277Z,11.11
2023-03-10T08:41:54.153Z,11.12
2023-03-10T08:44:27.312Z,11.14
2023-03-10T08:47:00.334Z,11.19
2023-03-10T08:49:33.212Z,11.23
2023-03-10T08:52:08.038Z,11.33
2023-03-10T08:54:40.823Z,11.43
2023-03-10T08:57:13.490Z,11.53
2023-03-10T08:59:46.257Z,11.62
2023-03-10T09:02:22.091Z,11.71
2023-03-10T09:04:55.174Z,11.79
2023-03-10T09:07:29.350Z,11.87
2023-03-10T09:10:03.593Z,11.95
2023-03-10T09:12:39.123Z,11.99
2023-03-10T09:15:12.522Z,12.06
2023-03-10T09:17:45.255Z,12.12
2023-03-10T09:20:21.329Z,12.17
2023-03-10T09:22:56.554Z,12.29
2023-03-10T09:25:29.475Z,12.38
2023-03-10T09:28:02.262Z,12.52
2023-03-10T09:30:37.412Z,12.66
2023-03-10T09:33:14.802Z,12.80
2023-03-10T09:36:04.921Z,12.97
2023-03-10T09:38:42.067Z,13.12
2023-03-10T09:41:24.009Z,13.26
2023-03-10T09:44:00.744Z,13.40
2023-03-10T09:46:40.160Z,13.49
2023-03-10T09:49:17.043Z,13.59
2023-03-10T09:51:51.415Z,13.66
2023-03-10T09:54:39.546Z,13.68
2023-03-10T09:57:16.760Z,13.72
2023-03-10T09:59:51.081Z,13.74
2023-03-10T10:02:24.908Z,13.77
2023-03-10T10:05:03.674Z,13.79
2023-03-10T10:07:42.588Z,13.81
2023-03-10T10:10:18.580Z,13.83
2023-03-10T10:12:54.724Z,13.83
2023-03-10T10:15:29.011Z,13.83
2023-03-10T10:18:18.010Z,13.83
2023-03-10T10:20:59.114Z,13.81
2023-03-10T10:23:38.867Z,13.80
2023-03-10T10:26:13.954Z,13.80
2023-03-10T10:28:50.740Z,13.79
2023-03-10T10:31:24.521Z,13.79
2023-03-10T10:33:58.836Z,13.81
2023-03-10T10:36:32.672Z,13.83
2023-03-10T10:39:20.408Z,13.88
2023-03-10T10:41:54.953Z,13.91
2023-03-10T10:44:27.665Z,13.98
2023-03-10T10:47:00.349Z,14.07
2023-03-10T10:49:34.113Z,14.13
2023-03-10T10:52:19.380Z,14.21
2023-03-10T10:54:56.335Z,14.32
2023-03-10T10:57:32.497Z,14.39
2023-03-10T11:00:18.605Z,14.49
2023-03-10T11:02:51.374Z,14.57
2023-03-10T11:05:25.305Z,14.65
2023-03-10T11:08:00.185Z,14.72
2023-03-10T11:10:34.501Z,14.82
2023-03-10T11:13:15.121Z,14.88
2023-03-10T11:15:53.049Z,14.94
2023-03-10T11:18:28.961Z,14.96
2023-03-10T11:21:05.265Z,15.00
2023-03-10T11:23:42.084Z,15.05
2023-03-10T11:26:19.760Z,15.10
2023-03-10T11:28:54.732Z,15.17
2023-03-10T11:31:33.723Z,15.23
2023-03-10T11:34:15.516Z,15.29
2023-03-10T11:36:56.413Z,15.36
2023-03-10T11:39:36.208Z,15.44
2023-03-10T11:42:12.390Z,15.51
2023-03-10T11:44:52.410Z,15.55
2023-03-10T11:47:29.821Z,15.54
2023-03-10T11:50:08.585Z,15.50
2023-03-10T11:52:41.608Z,15.42
2023-03-10T11:55:18.794Z,15.34
2023-03-10T11:57:54.594Z,15.25
2023-03-10T12:00:30.665Z,15.16
2023-03-10T12:03:08.265Z,15.07
2023-03-10T12:05:45.123Z,14.98
2023-03-10T12:08:19.662Z,14.89
2023-03-10T12:10:53.946Z,14.81
2023-03-10T12:13:28.164Z,14.72
2023-03-10T12:16:03.044Z,14.64
2023-03-10T12:18:35.808Z,14.55
2023-03-10T12:21:15.991Z,14.48
2023-03-10T12:23:49.234Z,14.39
2023-03-10T12:26:40.908Z,14.28
2023-03-10T12:29:32.018Z,14.17
2023-03-10T12:32:07.102Z,14.04
2023-03-10T12:34:39.780Z,13.91
2023-03-10T12:37:13.629Z,13.79
2023-03-10T12:39:46.501Z,13.66
2023-03-10T12:42:30.115Z,13.54
2023-03-10T12:45:07.956Z,13.44
2023-03-10T12:47:50.249Z,13.39
2023-03-10T12:50:30.461Z,13.35
2023-03-10T12:53:13.166Z,13.31
2023-03-10T12:56:05.911Z,13.27
2023-03-10T12:58:40.067Z,13.24
2023-03-10T13:01:15.028Z,13.20
2023-03-10T13:03:51.965Z,13.16
2023-03-10T13:06:29.386Z,13.13
2023-03-10T13:09:10.772Z,13.10
2023-03-10T13:11:45.336Z,13.08
2023-03-10T13:14:19.551Z,13.04
2023-03-10T13:16:55.755Z,13.02
2023-03-10T13:19:31.487Z,12.98
2023-03-10T13:22:05.631Z,12.97
2023-03-10T13:24:38.639Z,12.96
2023-03-10T13:27:14.262Z,12.95
2023-03-10T13:29:55.838Z,12.97
2023-03-10T13:32:29.189Z,12.98
2023-03-10T13:35:15.885Z,13.01
2023-03-10T13:38:03.875Z,13.08
2023-03-10T13:40:37.545Z,13.14
2023-03-10T13:43:23.832Z,13.23
2023-03-10T13:45:57.023Z,13.29
2023-03-10T13:48:31.047Z,13.34
2023-03-10T13:51:18.607Z,13.37
2023-03-10T13:53:53.545Z,13.38
2023-03-10T13:56:27.458Z,13.38
2023-03-10T13:59:02.163Z,13.39
2023-03-10T14:01:37.285Z,13.39
2023-03-10T14:04:15.704Z,13.42
2023-03-10T14:07:07.365Z,13.45
2023-03-10T14:09:40.107Z,13.48
2023-03-10T14:12:13.561Z,13.50
2023-03-10T14:14:46.368Z,13.53
2023-03-10T14:17:32.589Z,13.52
2023-03-10T14:20:08.456Z,13.52
2023-03-10T14:22:43.568Z,13.51
2023-03-10T14:25:18.027Z,13.50
2023-03-10T14:27:55.064Z,13.50
2023-03-10T14:30:29.350Z,13.49
2023-03-10T14:33:02.939Z,13.50
2023-03-10T14:35:35.642Z,13.47
2023-03-10T14:38:10.439Z,13.47
2023-03-10T14:40:44.354Z,13.43
2023-03-10T14:43:19.834Z,13.40
2023-03-10T14:45:53.958Z,13.35
2023-03-10T14:48:28.143Z,13.29
2023-03-10T14:51:00.936Z,13.21
2023-03-10T14:53:35.400Z,13.12
2023-03-10T14:56:12.664Z,12.98
2023-03-10T14:58:47.460Z,12.87
2023-03-10T15:01:21.644Z,12.71
2023-03-10T15:03:54.422Z,12.55
2023-03-10T15:06:27.164Z,12.37
2023-03-10T15:09:01.287Z,12.22
2023-03-10T15:11:37.320Z,12.09
2023-03-10T15:14:13.019Z,11.97
2023-03-10T15:16:45.914Z,11.86
2023-03-10T15:19:20.951Z,11.79
2023-03-10T15:21:54.047Z,11.71
2023-03-10T15:24:28.217Z,11.66
2023-03-10T15:27:01.264Z,11.60
2023-03-10T15:29:34.047Z,11.57
2023-03-10T15:32:07.066Z,11.55
2023-03-10T15:34:39.763Z,11.54
2023-03-10T15:37:12.776Z,11.51
2023-03-10T15:39:46.855Z,11.47
2023-03-10T15:42:19.732Z,11.46
2023-03-10T15:44:52.417Z,11.45
2023-03-10T15:47:25.290Z,11.45
2023-03-10T15:49:58.101Z,11.46
2023-03-10T15:52:30.916Z,11.46
2023-03-10T15:55:05.557Z,11.48
2023-03-10T15:57:38.359Z,11.45
2023-03-10T16:00:12.305Z,11.44
2023-03-10T16:02:45.355Z,11.40
2023-03-10T16:05:19.058Z,11.35
2023-03-10T16:07:52.250Z,11.33
2023-03-10T16:10:26.414Z,11.31
2023-03-10T16:12:59.819Z,11.27
2023-03-10T16:15:32.693Z,11.23
2023-03-10T16:18:05.474Z,11.21
2023-03-10T16:20:38.272Z,11.21
2023-03-10T16:23:11.239Z,11.20
2023-03-10T16:25:45.332Z,11.19
2023-03-10T16:28:18.059Z,11.20
2023-03-10T16:30:50.895Z,11.22
2023-03-10T16:33:23.706Z,11.22
2023-03-10T16:35:58.618Z,11.22
2023-03-10T16:38:31.373Z,11.21
2023-03-10T16:41:05.507Z,11.20
2023-03-10T16:43:38.244Z,11.18
2023-03-10T16:46:11.937Z,11.16
2023-03-10T16:48:45.881Z,11.13
2023-03-10T16:51:20.327Z,11.11
2023-03-10T16:53:53.654Z,11.08
2023-03-10T16:56:29.032Z,11.06
2023-03-10T16:59:01.773Z,11.07
2023-03-10T17:01:34.841Z,11.05
2023-03-10T17:04:07.986Z,11.05
2023-03-10T17:06:40.843Z,11.04
2023-03-10T17:09:14.050Z,11.07
2023-03-10T17:11:50.039Z,11.10
2023-03-10T17:14:22.851Z,11.07
2023-03-10T17:16:55.822Z,11.07
2023-03-10T17:19:30.461Z,11.06
2023-03-10T17:22:03.208Z,11.02
2023-03-10T17:24:36.240Z,10.98
2023-03-10T17:27:10.319Z,10.93
2023-03-10T17:29:43.057Z,10.87
2023-03-10T17:32:16.080Z,10.80
2023-03-10T17:34:52.334Z,10.73
2023-03-10T17:37:25.088Z,10.66
2023-03-10T17:39:57.763Z,10.57
2023-03-10T17:42:32.718Z,10.49
2023-03-10T17:45:06.877Z,10.44
2023-03-10T17:47:39.865Z,10.36
2023-03-10T17:50:12.931Z,10.31
2023-03-10T17:52:48.544Z,10.26
2023-03-10T17:55:21.322Z,10.23
2023-03-10T17:57:55.413Z,10.19
2023-03-10T18:00:28.146Z,10.17
2023-03-10T18:03:01.088Z,10.14
2023-03-10T18:05:33.863Z,10.13
2023-03-10T18:08:06.552Z,10.12
2023-03-10T18:10:40.602Z,10.12
2023-03-10T18:13:14.938Z,10.10
2023-03-10T18:15:50.862Z,10.11
2023-03-10T18:18:24.077Z,10.10
2023-03-10T18:20:56.798Z,10.10
2023-03-10T18:23:29.528Z,10.11
2023-03-10T18:26:02.312Z,10.10
2023-03-10T18:28:36.634Z,10.09
2023-03-10T18:31:09.962Z,10.09
2023-03-10T18:33:43.588Z,10.11
2023-03-10T18:36:17.216Z,10.12
2023-03-10T18:38:50.109Z,10.13
2023-03-10T18:41:23.693Z,10.16
2023-03-10T18:43:58.075Z,10.17
2023-03-10T18:46:30.938Z,10.19
2023-03-10T18:49:03.733Z,10.19
2023-03-10T18:51:36.489Z,10.24
2023-03-10T18:54:09.205Z,10.23
2023-03-10T18:56:42.114Z,10.22
2023-03-10T18:59:16.221Z,10.18
2023-03-10T19:01:49.635Z,10.17
2023-03-10T19:04:22.331Z,10.15
2023-03-10T19:06:55.065Z,10.12
2023-03-10T19:09:27.833Z,10.09
2023-03-10T19:12:00.550Z,10.07
2023-03-10T19:14:34.645Z,10.05
2023-03-10T19:17:07.472Z,10.04
2023-03-10T19:19:40.486Z,10.02
2023-03-10T19:22:13.554Z,10.02
2023-03-10T19:24:46.240Z,10.00
2023-03-10T19:27:18.914Z,10.02
2023-03-10T19:29:53.745Z,10.02
2023-03-10T19:32:27.029Z,10.01
2023-03-10T19:34:59.877Z,9.97
2023-03-10T19:37:32.664Z,9.94
2023-03-10T19:40:09.184Z,9.91
2023-03-10T19:42:43.039Z,9.83
2023-03-10T19:45:18.133Z,9.77
2023-03-10T19:47:52.419Z,9.67
2023-03-10T19:50:25.528Z,9.61
2023-03-10T19:53:00.969Z,9.50
2023-03-10T19:55:33.777Z,9.41
2023-03-10T19:58:06.565Z,9.35
2023-03-10T20:00:40.646Z,9.28
2023-03-10T20:03:14.117Z,9.24
2023-03-10T20:05:47.770Z,9.19
2023-03-10T20:08:20.514Z,9.16
2023-03-10T20:10:53.632Z,9.12
2023-03-10T20:13:26.716Z,9.09
2023-03-10T20:16:00.882Z,9.08
2023-03-10T20:18:33.683Z,9.04
2023-03-10T20:21:06.866Z,9.04
2023-03-10T20:23:40.434Z,9.01
2023-03-10T20:26:13.415Z,8.99
2023-03-10T20:28:46.864Z,9.00
2023-03-10T20:31:22.097Z,8.98
2023-03-10T20:33:55.494Z,8.99
2023-03-10T20:36:28.275Z,8.98
2023-03-10T20:39:05.036Z,8.94
2023-03-10T20:41:37.773Z,8.93
2023-03-10T20:44:14.630Z,8.90
2023-03-10T20:46:48.749Z,8.86
2023-03-10T20:49:21.596Z,8.83
2023-03-10T20:51:54.336Z,8.78
2023-03-10T20:54:27.510Z,8.75
2023-03-10T20:57:00.252Z,8.70
2023-03-10T20:59:33.157Z,8.67
2023-03-10T21:02:07.718Z,8.65
2023-03-10T21:04:40.505Z,8.64
2023-03-10T21:07:13.314Z,8.62
2023-03-10T21:09:46.570Z,8.59
2023-03-10T21:12:21.264Z,8.59
2023-03-10T21:14:54.521Z,8.57
2023-03-10T21:17:31.808Z,8.54
2023-03-10T21:20:06.140Z,8.53
2023-03-10T21:22:40.113Z,8.51
2023-03-10T21:25:14.482Z,8.49
2023-03-10T21:27:47.887Z,8.47
2023-03-10T21:30:21.646Z,8.47
2023-03-10T21:32:56.219Z,8.47
2023-03-10T21:35:30.579Z,8.48
2023-03-10T21:38:03.374Z,8.47
2023-03-10T21:40:36.272Z,8.49
2023-03-10T21:43:09.167Z,8.49
2023-03-10T21:45:41.941Z,8.51
2023-03-10T21:48:16.025Z,8.52
2023-03-10T21:50:48.966Z,8.54
2023-03-10T21:53:21.726Z,8.56
2023-03-10T21:55:54.919Z,8.57
2023-03-10T21:58:27.600Z,8.60
2023-03-10T22:01:00.419Z,8.63
2023-03-10T22:03:35.343Z,8.65
2023-03-10T22:06:08.337Z,8.65
2023-03-10T22:08:41.159Z,8.67
2023-03-10T22:11:14.075Z,8.70
2023-03-10T22:13:46.996Z,8.73
2023-03-10T22:16:19.906Z,8.74
2023-03-10T22:18:54.014Z,8.77
2023-03-10T22:21:26.819Z,8.78
2023-03-10T22:23:59.996Z,8.78
2023-03-10T22:26:32.764Z,8.82
2023-03-10T22:29:05.564Z,8.82
2023-03-10T22:31:38.371Z,8.82
2023-03-10T22:34:12.726Z,8.82
2023-03-10T22:36:45.459Z,8.84
2023-03-10T22:39:18.531Z,8.83
2023-03-10T22:41:51.401Z,8.85
2023-03-10T22:44:24.112Z,8.86
2023-03-10T22:46:57.093Z,8.85
2023-03-10T22:49:31.341Z,8.85
2023-03-10T22:52:07.100Z,8.87
2023-03-10T22:54:39.848Z,8.86
2023-03-10T22:57:15.257Z,8.88
2023-03-10T22:59:48.053Z,8.88
2023-03-10T23:02:21.221Z,8.88
2023-03-10T23:04:55.354Z,8.86
2023-03-10T23:07:28.046Z,8.87
2023-03-10T23:10:00.933Z,8.87
2023-03-10T23:12:34.361Z,8.86
2023-03-10T23:15:15.382Z,8.86
2023-03-10T23:17:55.695Z,8.85
2023-03-10T23:20:31.466Z,8.84
2023-03-10T23:23:05.007Z,8.85
2023-03-10T23:25:38.808Z,8.85
2023-03-10T23:28:12.156Z,8.83
2023-03-10T23:30:45.839Z,8.83
2023-03-10T23:33:19.532Z,8.82
2023-03-10T23:35:54.474Z,8.81
2023-03-10T23:38:28.134Z,8.81
2023-03-10T23:41:00.946Z,8.79
2023-03-10T23:43:34.450Z,8.78
2023-03-10T23:46:08.158Z,8.76
2023-03-10T23:48:41.011Z,8.74
2023-03-10T23:51:15.924Z,8.73
2023-03-10T23:53:48.690Z,8.72
2023-03-10T23:56:21.373Z,8.70
2023-03-10T23:58:54.106Z,8.70
